Time,TemperatureF,DewpointF,PressureIn,WindDirection,WindDirectionDegrees,WindSpeedMPH,WindSpeedGustMPH,Humidity,HourlyPrecipIn,Conditions,Clouds,dailyrainin,SoftwareType,DateUTC
2013-08-30 17:52:00,83.8,68.9,29.64,East,90,0.0,0.0,61,0.00,,,0.00,WUHU216HW,2013-08-30 22:52:00,
2013-08-30 17:53:00,83.8,68.9,29.64,East,90,0.0,0.0,61,0.00,,,0.00,WUHU216HW,2013-08-30 22:53:00,
2013-08-30 17:54:00,83.8,68.9,29.64,East,90,0.0,0.0,61,0.00,,,0.00,WUHU216HW,2013-08-30 22:54:00,
2013-08-30 17:57:00,83.4,69.0,29.64,East,90,3.3,3.3,62,0.00,,,0.00,WUHU216HW,2013-08-30 22:57:00,
2013-08-30 18:02:00,83.3,68.9,29.64,NE,45,6.0,7.3,62,0.00,,,0.00,WUHU216HW,2013-08-30 23:02:00,
2013-08-30 18:07:00,82.9,68.5,29.64,East,90,1.1,8.2,62,0.00,,,0.00,WUHU216HW,2013-08-30 23:07:00,
2013-08-30 18:13:00,82.5,68.1,29.64,NNE,27,4.3,8.2,62,0.00,,,0.00,WUHU216HW,2013-08-30 23:13:00,
2013-08-30 18:18:00,82.2,67.8,29.64,East,90,1.7,6.9,62,0.00,,,0.00,WUHU216HW,2013-08-30 23:18:00,
2013-08-30 18:23:00,81.6,67.8,29.64,East,90,3.5,7.1,63,0.00,,,0.00,WUHU216HW,2013-08-30 23:23:00,
2013-08-30 18:28:00,81.1,67.7,29.65,ENE,60,1.1,7.1,64,0.00,,,0.00,WUHU216HW,2013-08-30 23:28:00,
2013-08-30 18:33:00,80.6,67.2,29.65,ENE,68,0.0,3.1,64,0.00,,,0.00,WUHU216HW,2013-08-30 23:33:00,
2013-08-30 18:38:00,80.2,67.3,29.66,NE,45,1.7,4.9,65,0.00,,,0.00,WUHU216HW,2013-08-30 23:38:00,
2013-08-30 18:43:00,79.7,66.8,29.66,NNE,23,4.2,4.9,65,0.00,,,0.00,WUHU216HW,2013-08-30 23:43:00,
2013-08-30 18:48:00,79.3,66.9,29.66,ENE,68,0.0,4.2,66,0.00,,,0.00,WUHU216HW,2013-08-30 23:48:00,
2013-08-30 18:53:00,78.9,67.0,29.67,ENE,68,1.1,8.0,67,0.00,,,0.00,WUHU216HW,2013-08-30 23:53:00,
2013-08-30 18:58:00,78.6,67.1,29.67,NE,45,4.4,8.0,68,0.00,,,0.00,WUHU216HW,2013-08-30 23:58:00,
2013-08-30 19:03:00,78.0,66.6,29.67,East,90,1.1,6.4,68,0.00,,,0.00,WUHU216HW,2013-08-31 00:03:00,
2013-08-30 19:08:00,77.7,66.7,29.67,NNE,23,2.2,2.2,69,0.00,,,0.00,WUHU216HW,2013-08-31 00:08:00,
2013-08-30 19:13:00,77.3,66.4,29.67,NE,45,0.0,2.2,69,0.00,,,0.00,WUHU216HW,2013-08-31 00:13:00,
2013-08-30 19:18:00,76.8,65.9,29.67,NE,35,3.1,4.4,69,0.00,,,0.00,WUHU216HW,2013-08-31 00:18:00,
2013-08-30 19:23:00,76.6,66.2,29.68,NE,45,6.8,8.0,70,0.00,,,0.00,WUHU216HW,2013-08-31 00:23:00,
2013-08-30 19:28:00,76.2,65.8,29.68,NNE,23,7.6,8.0,70,0.00,,,0.00,WUHU216HW,2013-08-31 00:28:00,
2013-08-30 19:33:00,75.9,65.4,29.68,East,90,0.0,7.6,70,0.00,,,0.00,WUHU216HW,2013-08-31 00:33:00,
2013-08-30 19:38:00,75.5,65.4,29.69,NNE,23,0.0,0.0,71,0.00,,,0.00,WUHU216HW,2013-08-31 00:38:00,